Time;durP1;ratioP1;P1;durP2;ratioP2;P2;SDS_P1;SDS_P2;PMS_P1;PMS_P2;Temp;Humidity;BMP_temperature;BMP_pressure;BME280_temperature;BME280_humidity;BME280_pressure;Samples;Min_cycle;Max_cycle;Signal;HPM_P1;HPM_P2
2022/01/21 00:01:22;;;;;;;;;;;;;;;;;;5097711;28;20249;-70
2022/01/21 00:03:48;;;;;;;;;;;;;;;;;;5097377;28;19923;-70
2022/01/21 00:06:14;;;;;;;;;;;;;;;;;;5097480;28;19920;-70
2022/01/21 00:08:40;;;;;;;;;;;;;;;;;;5097472;28;19908;-70
2022/01/21 00:11:06;;;;;;;;;;;;;;;;;;5097021;28;19908;-70
2022/01/21 00:13:35;;;;;;;;;;;;;;;;;;5097391;28;19969;-70
2022/01/21 00:16:01;;;;;;;;;;;;;;;;;;5097546;28;19908;-70
2022/01/21 00:18:27;;;;;;;;;;;;;;;;;;5096912;28;19915;-70
2022/01/21 00:31:51;;;;;;;;;;;;;;;;;;5096795;28;20382;-70
2022/01/21 00:34:17;;;;;;;;;;;;;;;;;;5097495;28;19908;-71
2022/01/21 00:36:43;;;;;;;;;;;;;;;;;;5097039;28;19915;-70
2022/01/21 00:39:09;;;;;;;;;;;;;;;;;;5096507;28;19913;-70
2022/01/21 00:41:41;;;;;;;;;;;;;;;;;;5095550;28;19910;-70
2022/01/21 00:44:07;;;;;;;;;;;;;;;;;;5095476;28;20414;-70
2022/01/21 00:46:33;;;;;;;;;;;;;;;;;;5096303;28;19916;-70
2022/01/21 00:48:59;;;;;;;;;;;;;;;;;;5096706;28;19912;-70
2022/01/21 00:51:25;;;;;;;;;;;;;;;;;;5096676;28;19931;-70
2022/01/21 00:53:51;;;;;;;;;;;;;;;;;;5096170;28;20261;-70
2022/01/21 00:56:17;;;;;;;;;;;;;;;;;;5096578;28;19915;-70
2022/01/21 00:58:43;;;;;;;;;;;;;;;;;;5096357;28;19908;-70
2022/01/21 01:01:09;;;;;;;;;;;;;;;;;;5096010;28;20311;-70
2022/01/21 01:03:35;;;;;;;;;;;;;;;;;;5096732;28;19961;-70
2022/01/21 01:06:01;;;;;;;;;;;;;;;;;;5095867;28;19939;-70
2022/01/21 01:08:27;;;;;;;;;;;;;;;;;;5095093;28;19909;-70
2022/01/21 01:21:29;;;;;;;;;;;;;;;;;;5095782;28;19946;-70
2022/01/21 01:29:21;;;;;;;;;;;;;;;;;;5095595;28;20318;-70
2022/01/21 01:31:47;;;;;;;;;;;;;;;;;;5095892;28;19908;-69
2022/01/21 01:34:13;;;;;;;;;;;;;;;;;;5095659;28;19954;-70
2022/01/21 01:36:42;;;;;;;;;;;;;;;;;;5095783;28;19912;-70
2022/01/21 01:41:42;;;;;;;;;;;;;;;;;;5095328;28;19908;-70
2022/01/21 01:49:37;;;;;;;;;;;;;;;;;;5095274;28;19915;-70
2022/01/21 01:52:03;;;;;;;;;;;;;;;;;;5095673;28;19916;-70
2022/01/21 01:54:29;;;;;;;;;;;;;;;;;;5094266;28;19908;-70
2022/01/21 01:56:56;;;;;;;;;;;;;;;;;;5095107;28;19944;-70
2022/01/21 01:59:22;;;;;;;;;;;;;;;;;;5095338;28;19908;-70
2022/01/21 02:01:48;;;;;;;;;;;;;;;;;;5095715;28;19916;-71
2022/01/21 02:04:13;;;;;;;;;;;;;;;;;;5094871;28;19909;-70
2022/01/21 02:06:39;;;;;;;;;;;;;;;;;;5095232;28;20360;-70
2022/01/21 02:09:05;;;;;;;;;;;;;;;;;;5094411;28;19908;-70
2022/01/21 02:11:31;;;;;;;;;;;;;;;;;;5094761;28;20376;-70
2022/01/21 02:14:00;;;;;;;;;;;;;;;;;;5093849;28;19915;-70
2022/01/21 02:21:39;;;;;;;;;;;;;;;;;;5095000;28;19915;-70
2022/01/21 02:24:05;;;;;;;;;;;;;;;;;;5094679;28;19908;-70
2022/01/21 02:26:31;;;;;;;;;;;;;;;;;;5094732;28;20011;-70
2022/01/21 02:28:59;;;;;;;;;;;;;;;;;;5094895;28;20325;-71
2022/01/21 02:31:25;;;;;;;;;;;;;;;;;;5094362;28;19912;-70
2022/01/21 02:33:51;;;;;;;;;;;;;;;;;;5095048;28;19909;-70
2022/01/21 02:36:17;;;;;;;;;;;;;;;;;;5094712;28;20280;-70
2022/01/21 02:38:43;;;;;;;;;;;;;;;;;;5093008;28;19908;-70
2022/01/21 02:41:09;;;;;;;;;;;;;;;;;;5094737;28;19957;-70
2022/01/21 02:43:35;;;;;;;;;;;;;;;;;;5095070;28;19915;-69
2022/01/21 02:46:05;;;;;;;;;;;;;;;;;;5094308;28;20275;-70
2022/01/21 02:48:35;;;;;;;;;;;;;;;;;;5094502;28;20347;-70
2022/01/21 02:51:01;;;;;;;;;;;;;;;;;;5094488;28;19912;-70
2022/01/21 02:53:39;;;;;;;;;;;;;;;;;;5094034;28;19908;-70
2022/01/21 02:56:05;;;;;;;;;;;;;;;;;;5094377;28;20364;-70
2022/01/21 02:58:32;;;;;;;;;;;;;;;;;;5094134;28;19908;-70
2022/01/21 03:00:58;;;;;;;;;;;;;;;;;;5094342;28;19916;-70
2022/01/21 03:03:23;;;;;;;;;;;;;;;;;;5094307;28;20368;-71
2022/01/21 03:05:50;;;;;;;;;;;;;;;;;;5092441;28;19924;-70
2022/01/21 03:08:16;;;;;;;;;;;;;;;;;;5094217;28;20312;-70
2022/01/21 03:10:42;;;;;;;;;;;;;;;;;;5094112;28;19908;-70
2022/01/21 03:13:08;;;;;;;;;;;;;;;;;;5092477;28;19954;-70
2022/01/21 03:15:34;;;;;;;;;;;;;;;;;;5094104;28;20276;-70
2022/01/21 03:18:00;;;;;;;;;;;;;;;;;;5094255;28;19908;-70
2022/01/21 03:20:26;;;;;;;;;;;;;;;;;;5093576;28;19912;-69
2022/01/21 03:22:52;;;;;;;;;;;;;;;;;;5094277;28;19908;-70
2022/01/21 03:25:18;;;;;;;;;;;;;;;;;;5093885;28;20376;-70
2022/01/21 03:27:44;;;;;;;;;;;;;;;;;;5093875;28;19953;-68
2022/01/21 03:30:10;;;;;;;;;;;;;;;;;;5094027;28;20004;-69
2022/01/21 03:32:36;;;;;;;;;;;;;;;;;;5092659;28;19908;-68
2022/01/21 03:35:02;;;;;;;;;;;;;;;;;;5092190;28;19947;-68
2022/01/21 03:37:27;;;;;;;;;;;;;;;;;;5094391;28;19916;-69
2022/01/21 03:39:54;;;;;;;;;;;;;;;;;;5093842;28;19961;-69
2022/01/21 03:42:20;;;;;;;;;;;;;;;;;;5092012;28;19909;-68
2022/01/21 03:44:46;;;;;;;;;;;;;;;;;;5093712;28;19999;-69
2022/01/21 03:47:12;;;;;;;;;;;;;;;;;;5094127;28;20311;-69
2022/01/21 03:49:41;;;;;;;;;;;;;;;;;;5093365;28;19908;-69
2022/01/21 03:52:07;;;;;;;;;;;;;;;;;;5093753;28;19994;-70
2022/01/21 03:54:33;;;;;;;;;;;;;;;;;;5092468;28;19966;-70
2022/01/21 03:56:59;;;;;;;;;;;;;;;;;;5093185;28;19967;-70
2022/01/21 03:59:25;;;;;;;;;;;;;;;;;;5093951;28;19916;-69
2022/01/21 04:01:51;;;;;;;;;;;;;;;;;;5093638;28;19908;-69
2022/01/21 04:04:17;;;;;;;;;;;;;;;;;;5093641;28;20320;-69
2022/01/21 04:06:43;;;;;;;;;;;;;;;;;;5093535;28;19941;-70
2022/01/21 04:09:09;;;;;;;;;;;;;;;;;;5091961;28;19912;-70
2022/01/21 04:11:35;;;;;;;;;;;;;;;;;;5093829;28;19915;-70
2022/01/21 04:14:01;;;;;;;;;;;;;;;;;;5092245;28;20387;-69
2022/01/21 04:16:27;;;;;;;;;;;;;;;;;;5093525;28;19948;-69
2022/01/21 04:18:53;;;;;;;;;;;;;;;;;;5093612;28;19908;-70
2022/01/21 04:21:19;;;;;;;;;;;;;;;;;;5092197;28;19927;-70
2022/01/21 04:23:45;;;;;;;;;;;;;;;;;;5093008;28;19950;-69
2022/01/21 04:26:11;;;;;;;;;;;;;;;;;;5093159;28;19949;-69
2022/01/21 04:28:37;;;;;;;;;;;;;;;;;;5093348;28;20358;-69
2022/01/21 04:31:03;;;;;;;;;;;;;;;;;;5093244;28;19922;-70
2022/01/21 04:33:29;;;;;;;;;;;;;;;;;;5095422;28;19916;-70
2022/01/21 04:35:55;;;;;;;;;;;;;;;;;;5095710;28;19912;-69
2022/01/21 04:38:23;;;;;;;;;;;;;;;;;;5096719;28;19908;-70
2022/01/21 04:41:03;;;;;;;;;;;;;;;;;;5096885;28;19912;-70
2022/01/21 04:48:58;;;;;;;;;;;;;;;;;;5097001;28;19935;-69
2022/01/21 04:51:29;;;;;;;;;;;;;;;;;;5096315;28;20372;-69
2022/01/21 04:53:55;;;;;;;;;;;;;;;;;;5096910;28;19908;-70
2022/01/21 04:56:21;;;;;;;;;;;;;;;;;;5096607;28;19914;-70
2022/01/21 04:58:47;;;;;;;;;;;;;;;;;;5096157;28;19912;-69
2022/01/21 05:01:13;;;;;;;;;;;;;;;;;;5096788;28;19961;-69
2022/01/21 05:03:40;;;;;;;;;;;;;;;;;;5096540;28;20268;-72
2022/01/21 05:06:06;;;;;;;;;;;;;;;;;;5096020;28;20416;-73
2022/01/21 05:08:53;;;;;;;;;;;;;;;;;;5096712;28;19989;-71
2022/01/21 05:11:19;;;;;;;;;;;;;;;;;;5096556;28;19912;-72
2022/01/21 05:13:54;;;;;;;;;;;;;;;;;;5095935;28;19908;-71
2022/01/21 05:16:34;;;;;;;;;;;;;;;;;;5096959;28;19908;-70
2022/01/21 05:19:00;;;;;;;;;;;;;;;;;;5096312;28;19915;-70
2022/01/21 05:21:26;;;;;;;;;;;;;;;;;;5095805;28;19908;-69
2022/01/21 05:23:52;;;;;;;;;;;;;;;;;;5096142;28;19908;-70
2022/01/21 05:26:18;;;;;;;;;;;;;;;;;;5095438;28;20291;-70
2022/01/21 05:28:44;;;;;;;;;;;;;;;;;;5096061;28;19908;-69
2022/01/21 05:31:10;;;;;;;;;;;;;;;;;;5095987;28;20326;-69
2022/01/21 05:33:36;;;;;;;;;;;;;;;;;;5094231;28;19908;-69
2022/01/21 05:36:02;;;;;;;;;;;;;;;;;;5095917;28;19908;-69
2022/01/21 05:38:28;;;;;;;;;;;;;;;;;;5094567;28;19912;-69
2022/01/21 05:40:54;;;;;;;;;;;;;;;;;;5095434;28;19952;-69
2022/01/21 05:43:21;;;;;;;;;;;;;;;;;;5096042;28;19961;-69
2022/01/21 05:48:31;;;;;;;;;;;;;;;;;;5095272;28;19915;-69
2022/01/21 05:50:58;;;;;;;;;;;;;;;;;;5094347;28;20365;-69
2022/01/21 05:53:24;;;;;;;;;;;;;;;;;;5094281;28;19955;-69
2022/01/21 05:55:50;;;;;;;;;;;;;;;;;;5093747;28;20330;-69
2022/01/21 05:58:16;;;;;;;;;;;;;;;;;;5095412;28;19912;-69
2022/01/21 06:00:42;;;;;;;;;;;;;;;;;;5094148;28;20279;-69
2022/01/21 06:03:08;;;;;;;;;;;;;;;;;;5095099;28;20089;-69
2022/01/21 06:05:34;;;;;;;;;;;;;;;;;;5095219;28;19956;-69
2022/01/21 06:08:00;;;;;;;;;;;;;;;;;;5095188;28;19908;-69
2022/01/21 06:10:26;;;;;;;;;;;;;;;;;;5094880;28;19914;-69
2022/01/21 06:12:52;;;;;;;;;;;;;;;;;;5095222;28;19908;-69
2022/01/21 06:15:18;;;;;;;;;;;;;;;;;;5093819;28;19912;-69
2022/01/21 06:17:44;;;;;;;;;;;;;;;;;;5093964;28;19908;-69
2022/01/21 06:20:10;;;;;;;;;;;;;;;;;;5095527;28;19914;-69
2022/01/21 06:22:36;;;;;;;;;;;;;;;;;;5094720;28;20361;-69
2022/01/21 06:25:02;;;;;;;;;;;;;;;;;;5094641;28;20376;-69
2022/01/21 06:27:31;;;;;;;;;;;;;;;;;;5094848;28;19991;-71
2022/01/21 06:29:57;;;;;;;;;;;;;;;;;;5094614;28;19961;-71
2022/01/21 06:32:25;;;;;;;;;;;;;;;;;;5094834;28;19983;-70
2022/01/21 06:34:51;;;;;;;;;;;;;;;;;;5094810;28;20364;-74
2022/01/21 06:37:17;;;;;;;;;;;;;;;;;;5093038;28;19908;-73
2022/01/21 06:39:43;;;;;;;;;;;;;;;;;;5094692;28;20017;-72
2022/01/21 06:42:09;;;;;;;;;;;;;;;;;;5094921;28;20330;-73
2022/01/21 06:44:35;;;;;;;;;;;;;;;;;;5094291;28;19908;-70
2022/01/21 06:47:01;;;;;;;;;;;;;;;;;;5094519;28;19918;-70
2022/01/21 06:49:27;;;;;;;;;;;;;;;;;;5094869;28;19915;-70
2022/01/21 06:51:53;;;;;;;;;;;;;;;;;;5094004;28;19908;-71
2022/01/21 06:54:19;;;;;;;;;;;;;;;;;;5094448;28;19942;-73
2022/01/21 06:56:45;;;;;;;;;;;;;;;;;;5094186;28;19908;-71
2022/01/21 06:59:11;;;;;;;;;;;;;;;;;;5094053;28;19908;-70
2022/01/21 07:01:37;;;;;;;;;;;;;;;;;;5094866;28;19915;-72
2022/01/21 07:04:03;;;;;;;;;;;;;;;;;;5094279;28;20272;-72
2022/01/21 07:06:29;;;;;;;;;;;;;;;;;;5094070;28;20019;-71
2022/01/21 07:08:55;;;;;;;;;;;;;;;;;;5094248;28;20386;-72
2022/01/21 07:11:21;;;;;;;;;;;;;;;;;;5094262;28;19914;-71
2022/01/21 07:13:47;;;;;;;;;;;;;;;;;;5092559;28;19908;-71
2022/01/21 07:16:13;;;;;;;;;;;;;;;;;;5094147;28;19915;-70
2022/01/21 07:18:39;;;;;;;;;;;;;;;;;;5093631;28;19919;-70
2022/01/21 07:21:05;;;;;;;;;;;;;;;;;;5090900;28;20364;-70
2022/01/21 07:23:31;;;;;;;;;;;;;;;;;;5093259;28;19947;-68
2022/01/21 07:25:57;;;;;;;;;;;;;;;;;;5092944;28;19967;-70
2022/01/21 07:28:23;;;;;;;;;;;;;;;;;;5093875;28;20376;-69
2022/01/21 07:30:49;;;;;;;;;;;;;;;;;;5093927;28;19919;-70
2022/01/21 07:33:15;;;;;;;;;;;;;;;;;;5093362;28;19950;-67
2022/01/21 07:35:41;;;;;;;;;;;;;;;;;;5093667;28;19914;-67
2022/01/21 07:38:07;;;;;;;;;;;;;;;;;;5093542;28;19919;-69
2022/01/21 07:40:33;;;;;;;;;;;;;;;;;;5093158;28;19994;-68
2022/01/21 07:42:59;;;;;;;;;;;;;;;;;;5092219;28;19960;-67
2022/01/21 07:45:25;;;;;;;;;;;;;;;;;;5092285;28;19969;-68
2022/01/21 07:47:51;;;;;;;;;;;;;;;;;;5093124;28;20326;-66
2022/01/21 07:50:17;;;;;;;;;;;;;;;;;;5093570;28;19909;-66
2022/01/21 07:52:43;;;;;;;;;;;;;;;;;;5093838;28;19908;-67
2022/01/21 07:55:10;;;;;;;;;;;;;;;;;;5093347;28;19918;-69
2022/01/21 07:57:36;;;;;;;;;;;;;;;;;;5092261;28;20008;-68
2022/01/21 08:00:02;;;;;;;;;;;;;;;;;;5093393;28;19908;-68
2022/01/21 08:02:29;;;;;;;;;;;;;;;;;;5092895;28;19944;-68
2022/01/21 08:04:56;;;;;;;;;;;;;;;;;;5093518;28;19995;-70
2022/01/21 08:07:22;;;;;;;;;;;;;;;;;;5093999;28;19966;-67
2022/01/21 08:09:49;;;;;;;;;;;;;;;;;;5096890;28;19931;-68
2022/01/21 08:12:16;;;;;;;;;;;;;;;;;;5097432;28;20283;-68
2022/01/21 08:14:42;;;;;;;;;;;;;;;;;;5097300;28;19915;-69
2022/01/21 08:17:08;;;;;;;;;;;;;;;;;;5096931;28;19991;-67
2022/01/21 08:19:34;;;;;;;;;;;;;;;;;;5095907;28;19960;-68
2022/01/21 08:22:00;;;;;;;;;;;;;;;;;;5096287;28;19957;-67
2022/01/21 08:24:26;;;;;;;;;;;;;;;;;;5095425;28;19908;-67
2022/01/21 08:26:52;;;;;;;;;;;;;;;;;;5097258;28;20322;-68
2022/01/21 08:29:18;;;;;;;;;;;;;;;;;;5096679;28;19919;-67
2022/01/21 08:31:45;;;;;;;;;;;;;;;;;;5096952;28;19950;-67
2022/01/21 08:34:11;;;;;;;;;;;;;;;;;;5096808;28;19914;-67
2022/01/21 08:36:38;;;;;;;;;;;;;;;;;;5096496;28;19962;-67
2022/01/21 08:39:04;;;;;;;;;;;;;;;;;;5096813;28;19908;-67
2022/01/21 08:41:30;;;;;;;;;;;;;;;;;;5096762;28;19934;-68
2022/01/21 08:43:56;;;;;;;;;;;;;;;;;;5095979;28;19908;-67
2022/01/21 08:46:22;;;;;;;;;;;;;;;;;;5096646;28;19969;-69
2022/01/21 08:48:48;;;;;;;;;;;;;;;;;;5096618;28;20368;-67
2022/01/21 08:51:21;;;;;;;;;;;;;;;;;;5096247;28;19908;-68
2022/01/21 08:53:47;;;;;;;;;;;;;;;;;;5096505;28;19908;-68
2022/01/21 08:56:13;;;;;;;;;;;;;;;;;;5096681;28;19912;-69
2022/01/21 08:58:39;;;;;;;;;;;;;;;;;;5096298;28;19999;-68
2022/01/21 09:01:05;;;;;;;;;;;;;;;;;;5096409;28;19908;-69
2022/01/21 09:03:31;;;;;;;;;;;;;;;;;;5096178;28;20375;-69
2022/01/21 09:05:57;;;;;;;;;;;;;;;;;;5094350;28;19963;-70
2022/01/21 09:08:24;;;;;;;;;;;;;;;;;;5096471;28;19908;-69
2022/01/21 09:10:50;;;;;;;;;;;;;;;;;;5096254;28;19915;-69
2022/01/21 09:13:16;;;;;;;;;;;;;;;;;;5095790;28;19915;-69
2022/01/21 09:15:42;;;;;;;;;;;;;;;;;;5096081;28;19950;-69
2022/01/21 09:18:08;;;;;;;;;;;;;;;;;;5095568;28;20325;-70
2022/01/21 09:20:34;;;;;;;;;;;;;;;;;;5095947;28;20006;-68
2022/01/21 09:23:00;;;;;;;;;;;;;;;;;;5095913;28;19943;-68
2022/01/21 09:25:26;;;;;;;;;;;;;;;;;;5095401;28;20495;-67
2022/01/21 09:27:52;;;;;;;;;;;;;;;;;;5095871;28;19908;-67
2022/01/21 09:30:18;;;;;;;;;;;;;;;;;;5095803;28;19912;-68
2022/01/21 09:32:44;;;;;;;;;;;;;;;;;;5095445;28;19908;-68
2022/01/21 09:35:11;;;;;;;;;;;;;;;;;;5095876;28;20388;-69
2022/01/21 09:37:36;;;;;;;;;;;;;;;;;;5095727;28;20453;-66
2022/01/21 09:40:02;;;;;;;;;;;;;;;;;;5095196;28;19908;-66
2022/01/21 09:42:28;;;;;;;;;;;;;;;;;;5094123;28;19923;-67
2022/01/21 09:44:54;;;;;;;;;;;;;;;;;;5095754;28;19912;-66
2022/01/21 09:47:20;;;;;;;;;;;;;;;;;;5095144;28;19912;-66
2022/01/21 09:49:46;;;;;;;;;;;;;;;;;;5095488;28;19908;-68
2022/01/21 09:52:12;;;;;;;;;;;;;;;;;;5095385;28;20002;-69
2022/01/21 09:54:38;;;;;;;;;;;;;;;;;;5094902;28;19966;-67
2022/01/21 09:57:04;;;;;;;;;;;;;;;;;;5095348;28;19912;-66
2022/01/21 09:59:30;;;;;;;;;;;;;;;;;;5095246;28;20089;-67
2022/01/21 10:01:57;;;;;;;;;;;;;;;;;;5094785;28;20376;-67
2022/01/21 10:04:22;;;;;;;;;;;;;;;;;;5095287;28;19991;-67
2022/01/21 10:06:48;;;;;;;;;;;;;;;;;;5095058;28;19927;-66
2022/01/21 10:09:15;;;;;;;;;;;;;;;;;;5094706;28;19908;-68
2022/01/21 10:11:47;;;;;;;;;;;;;;;;;;5094934;28;19919;-67
2022/01/21 10:14:13;;;;;;;;;;;;;;;;;;5095050;28;19957;-67
2022/01/21 10:16:42;;;;;;;;;;;;;;;;;;5094622;28;19908;-66
2022/01/21 10:19:10;;;;;;;;;;;;;;;;;;5094950;28;19955;-67
2022/01/21 10:21:36;;;;;;;;;;;;;;;;;;5087668;28;19912;-67
2022/01/21 10:24:02;;;;;;;;;;;;;;;;;;5094591;28;19986;-67
2022/01/21 10:26:28;;;;;;;;;;;;;;;;;;5094300;28;20065;-66
2022/01/21 10:28:54;;;;;;;;;;;;;;;;;;5094106;28;19908;-67
2022/01/21 10:31:20;;;;;;;;;;;;;;;;;;5094007;28;19908;-68
2022/01/21 10:33:46;;;;;;;;;;;;;;;;;;5094530;28;19909;-67
2022/01/21 10:36:15;;;;;;;;;;;;;;;;;;5094378;28;19908;-67
2022/01/21 10:38:42;;;;;;;;;;;;;;;;;;5094496;28;19961;-67
2022/01/21 10:41:08;;;;;;;;;;;;;;;;;;5094717;28;20253;-68
2022/01/21 10:43:34;;;;;;;;;;;;;;;;;;5093948;28;19953;-64
2022/01/21 10:46:00;;;;;;;;;;;;;;;;;;5094359;28;19916;-67
2022/01/21 10:48:26;;;;;;;;;;;;;;;;;;5094462;28;19909;-67
2022/01/21 10:50:52;;;;;;;;;;;;;;;;;;5093796;28;20314;-67
2022/01/21 10:53:18;;;;;;;;;;;;;;;;;;5094677;28;19908;-67
2022/01/21 10:55:44;;;;;;;;;;;;;;;;;;5094218;28;20283;-67
2022/01/21 10:58:11;;;;;;;;;;;;;;;;;;5093749;28;19951;-67
2022/01/21 11:00:37;;;;;;;;;;;;;;;;;;5094174;28;19908;-67
2022/01/21 11:03:03;;;;;;;;;;;;;;;;;;5092455;28;19959;-66
2022/01/21 11:05:33;;;;;;;;;;;;;;;;;;5093817;28;19967;-67
2022/01/21 11:08:12;;;;;;;;;;;;;;;;;;5092774;28;19919;-67
2022/01/21 11:10:38;;;;;;;;;;;;;;;;;;5094003;28;19961;-67
2022/01/21 11:13:04;;;;;;;;;;;;;;;;;;5093359;28;19957;-67
2022/01/21 11:15:30;;;;;;;;;;;;;;;;;;5093891;28;19998;-67
2022/01/21 11:17:58;;;;;;;;;;;;;;;;;;5093395;28;19908;-68
2022/01/21 11:20:30;;;;;;;;;;;;;;;;;;5093859;28;19910;-67
2022/01/21 11:22:56;;;;;;;;;;;;;;;;;;5093516;28;19915;-67
2022/01/21 11:25:22;;;;;;;;;;;;;;;;;;5091894;28;19920;-67
2022/01/21 11:27:48;;;;;;;;;;;;;;;;;;5093989;28;19908;-67
2022/01/21 11:30:14;;;;;;;;;;;;;;;;;;5093605;28;19987;-68
2022/01/21 11:32:40;;;;;;;;;;;;;;;;;;5093204;28;19931;-67
2022/01/21 11:35:05;;;;;;;;;;;;;;;;;;5093679;28;19908;-68
2022/01/21 11:37:31;;;;;;;;;;;;;;;;;;5093795;28;20253;-68
2022/01/21 11:39:57;;;;;;;;;;;;;;;;;;5093427;28;19912;-67
2022/01/21 11:42:23;;;;;;;;;;;;;;;;;;5095883;28;20003;-67
2022/01/21 11:45:02;;;;;;;;;;;;;;;;;;5097673;28;19915;-68
2022/01/21 11:47:37;;;;;;;;;;;;;;;;;;5097570;28;19927;-67
2022/01/21 11:50:05;;;;;;;;;;;;;;;;;;5098046;28;19908;-67
2022/01/21 11:52:31;;;;;;;;;;;;;;;;;;5097847;28;19908;-68
2022/01/21 11:54:57;;;;;;;;;;;;;;;;;;5095938;28;19930;-69
2022/01/21 11:57:23;;;;;;;;;;;;;;;;;;5097635;28;19908;-68
2022/01/21 12:00:03;;;;;;;;;;;;;;;;;;5097682;28;19912;-68
2022/01/21 12:02:29;;;;;;;;;;;;;;;;;;5096070;28;19908;-67
2022/01/21 12:04:55;;;;;;;;;;;;;;;;;;5097351;28;20394;-68
2022/01/21 12:07:21;;;;;;;;;;;;;;;;;;5096973;28;19908;-68
2022/01/21 12:09:47;;;;;;;;;;;;;;;;;;5097447;28;19915;-69
2022/01/21 12:12:14;;;;;;;;;;;;;;;;;;5097457;28;20384;-68
2022/01/21 12:14:41;;;;;;;;;;;;;;;;;;5096922;28;19926;-69
2022/01/21 12:17:19;;;;;;;;;;;;;;;;;;5097182;28;20421;-68
2022/01/21 12:19:46;;;;;;;;;;;;;;;;;;5097209;28;19908;-68
2022/01/21 12:22:12;;;;;;;;;;;;;;;;;;5096549;28;20304;-68
2022/01/21 12:24:38;;;;;;;;;;;;;;;;;;5096776;28;19943;-69
2022/01/21 12:27:04;;;;;;;;;;;;;;;;;;5096854;28;20377;-69
2022/01/21 12:29:31;;;;;;;;;;;;;;;;;;5096673;28;19908;-68
2022/01/21 12:32:02;;;;;;;;;;;;;;;;;;5096969;28;19930;-69
2022/01/21 12:34:28;;;;;;;;;;;;;;;;;;5096991;28;20381;-68
2022/01/21 12:36:54;;;;;;;;;;;;;;;;;;5096416;28;19999;-69
2022/01/21 12:39:20;;;;;;;;;;;;;;;;;;5096855;28;19908;-68
2022/01/21 12:41:47;;;;;;;;;;;;;;;;;;5096813;28;19915;-68
2022/01/21 12:44:13;;;;;;;;;;;;;;;;;;5096042;28;19916;-69
2022/01/21 12:46:39;;;;;;;;;;;;;;;;;;5095424;28;19927;-67
2022/01/21 12:49:05;;;;;;;;;;;;;;;;;;5096596;28;20417;-67
2022/01/21 12:56:42;;;;;;;;;;;;;;;;;;5096000;28;19950;-68
2022/01/21 12:59:12;;;;;;;;;;;;;;;;;;5096431;28;19916;-67
2022/01/21 13:01:38;;;;;;;;;;;;;;;;;;5096442;28;19913;-68
2022/01/21 13:04:04;;;;;;;;;;;;;;;;;;5094432;28;19908;-66
2022/01/21 13:06:30;;;;;;;;;;;;;;;;;;5096204;28;20379;-68
2022/01/21 13:08:59;;;;;;;;;;;;;;;;;;5094958;28;19995;-69
2022/01/21 13:11:25;;;;;;;;;;;;;;;;;;5094616;28;19919;-68
2022/01/21 13:13:58;;;;;;;;;;;;;;;;;;5096230;28;20356;-68
2022/01/21 13:16:24;;;;;;;;;;;;;;;;;;5096398;28;19995;-68
2022/01/21 13:18:50;;;;;;;;;;;;;;;;;;5095604;28;19915;-68
2022/01/21 13:21:16;;;;;;;;;;;;;;;;;;5095924;28;19912;-67
2022/01/21 13:23:45;;;;;;;;;;;;;;;;;;5095752;28;19915;-66
2022/01/21 13:26:11;;;;;;;;;;;;;;;;;;5095285;28;19920;-67
2022/01/21 13:28:37;;;;;;;;;;;;;;;;;;5095662;28;19908;-66
2022/01/21 13:31:03;;;;;;;;;;;;;;;;;;5095497;28;19916;-68
2022/01/21 13:33:29;;;;;;;;;;;;;;;;;;5095335;28;20011;-69
2022/01/21 13:35:55;;;;;;;;;;;;;;;;;;5094325;28;19908;-69
2022/01/21 13:38:21;;;;;;;;;;;;;;;;;;5095422;28;19915;-64
2022/01/21 13:40:47;;;;;;;;;;;;;;;;;;5095470;28;19908;-67
2022/01/21 13:43:13;;;;;;;;;;;;;;;;;;5095554;28;19950;-66
2022/01/21 13:45:41;;;;;;;;;;;;;;;;;;5095055;28;19946;-66
2022/01/21 13:48:07;;;;;;;;;;;;;;;;;;5095171;28;20030;-67
2022/01/21 13:50:33;;;;;;;;;;;;;;;;;;5094631;28;19912;-67
2022/01/21 13:52:59;;;;;;;;;;;;;;;;;;5094118;28;20376;-67
2022/01/21 13:55:25;;;;;;;;;;;;;;;;;;5095200;28;19919;-67
2022/01/21 13:57:51;;;;;;;;;;;;;;;;;;5095355;28;19908;-68
2022/01/21 14:00:17;;;;;;;;;;;;;;;;;;5094340;28;19934;-68
2022/01/21 14:02:43;;;;;;;;;;;;;;;;;;5094187;28;19912;-68
2022/01/21 14:05:09;;;;;;;;;;;;;;;;;;5093809;28;19912;-67
2022/01/21 14:07:36;;;;;;;;;;;;;;;;;;5094181;28;19920;-67
2022/01/21 14:10:02;;;;;;;;;;;;;;;;;;5094770;28;19908;-67
2022/01/21 14:12:28;;;;;;;;;;;;;;;;;;5095057;28;19927;-67
2022/01/21 14:14:54;;;;;;;;;;;;;;;;;;5093859;28;19908;-68
2022/01/21 14:17:29;;;;;;;;;;;;;;;;;;5094886;28;19962;-67
2022/01/21 14:19:56;;;;;;;;;;;;;;;;;;5094849;28;19951;-67
2022/01/21 14:22:22;;;;;;;;;;;;;;;;;;5094239;28;20443;-67
2022/01/21 14:24:48;;;;;;;;;;;;;;;;;;5094324;28;20360;-67
2022/01/21 14:27:14;;;;;;;;;;;;;;;;;;5094351;28;20381;-68
2022/01/21 14:29:42;;;;;;;;;;;;;;;;;;5094340;28;19909;-67
2022/01/21 14:32:08;;;;;;;;;;;;;;;;;;5094803;28;19908;-68
2022/01/21 14:34:33;;;;;;;;;;;;;;;;;;5094759;28;20383;-68
2022/01/21 14:36:59;;;;;;;;;;;;;;;;;;5093099;28;19908;-68
2022/01/21 14:39:25;;;;;;;;;;;;;;;;;;5095104;28;20379;-68
2022/01/21 14:41:51;;;;;;;;;;;;;;;;;;5094323;28;19912;-68
2022/01/21 14:44:18;;;;;;;;;;;;;;;;;;5094637;28;20253;-69
2022/01/21 14:46:44;;;;;;;;;;;;;;;;;;5094503;28;19923;-68
2022/01/21 14:49:10;;;;;;;;;;;;;;;;;;5094338;28;19908;-68
2022/01/21 14:51:36;;;;;;;;;;;;;;;;;;5094454;28;19954;-67
2022/01/21 14:54:02;;;;;;;;;;;;;;;;;;5094348;28;19908;-67
2022/01/21 14:56:28;;;;;;;;;;;;;;;;;;5092631;28;20025;-67
2022/01/21 14:58:54;;;;;;;;;;;;;;;;;;5094435;28;19915;-67
2022/01/21 15:01:20;;;;;;;;;;;;;;;;;;5094572;28;19915;-67
2022/01/21 15:03:46;;;;;;;;;;;;;;;;;;5093916;28;20271;-68
2022/01/21 15:06:12;;;;;;;;;;;;;;;;;;5094263;28;19916;-68
2022/01/21 15:08:40;;;;;;;;;;;;;;;;;;5094340;28;19938;-69
2022/01/21 15:11:13;;;;;;;;;;;;;;;;;;5093860;28;19908;-68
2022/01/21 15:16:23;;;;;;;;;;;;;;;;;;5093838;28;19915;-68
2022/01/21 15:18:49;;;;;;;;;;;;;;;;;;5093622;28;20296;-67
2022/01/21 15:21:15;;;;;;;;;;;;;;;;;;5094584;28;19915;-67
2022/01/21 15:23:41;;;;;;;;;;;;;;;;;;5092683;28;19908;-67
2022/01/21 15:26:07;;;;;;;;;;;;;;;;;;5093744;28;19947;-68
2022/01/21 15:28:35;;;;;;;;;;;;;;;;;;5093814;28;19930;-68
2022/01/21 15:31:01;;;;;;;;;;;;;;;;;;5093498;28;20245;-68
2022/01/21 15:33:27;;;;;;;;;;;;;;;;;;5093928;28;19915;-69
2022/01/21 15:35:53;;;;;;;;;;;;;;;;;;5093937;28;20326;-68
2022/01/21 15:38:19;;;;;;;;;;;;;;;;;;5093430;28;19912;-68
2022/01/21 15:40:45;;;;;;;;;;;;;;;;;;5093747;28;19908;-68
2022/01/21 15:43:11;;;;;;;;;;;;;;;;;;5093755;28;19908;-67
2022/01/21 15:45:37;;;;;;;;;;;;;;;;;;5093212;28;20265;-69
2022/01/21 15:48:03;;;;;;;;;;;;;;;;;;5093886;28;19908;-68
2022/01/21 15:50:29;;;;;;;;;;;;;;;;;;5093754;28;19916;-68
2022/01/21 15:52:55;;;;;;;;;;;;;;;;;;5093400;28;20049;-68
2022/01/21 15:55:21;;;;;;;;;;;;;;;;;;5092397;28;19915;-69
2022/01/21 15:57:47;;;;;;;;;;;;;;;;;;5092402;28;19908;-68
2022/01/21 16:00:13;;;;;;;;;;;;;;;;;;5091981;28;19914;-68
2022/01/21 16:02:39;;;;;;;;;;;;;;;;;;5092400;28;20343;-68
2022/01/21 16:05:05;;;;;;;;;;;;;;;;;;5093675;28;20310;-68
2022/01/21 16:07:31;;;;;;;;;;;;;;;;;;5093422;28;19935;-68
2022/01/21 16:09:57;;;;;;;;;;;;;;;;;;5094019;28;19951;-68
2022/01/21 16:12:23;;;;;;;;;;;;;;;;;;5093529;28;20395;-68
2022/01/21 16:14:49;;;;;;;;;;;;;;;;;;5093237;28;19951;-68
2022/01/21 16:17:15;;;;;;;;;;;;;;;;;;5092226;28;19912;-68
2022/01/21 16:19:43;;;;;;;;;;;;;;;;;;5093488;28;19962;-68
2022/01/21 16:22:09;;;;;;;;;;;;;;;;;;5091806;28;19957;-68
2022/01/21 16:24:35;;;;;;;;;;;;;;;;;;5093299;28;19920;-68
2022/01/21 16:27:01;;;;;;;;;;;;;;;;;;5093484;28;19946;-68
2022/01/21 16:29:27;;;;;;;;;;;;;;;;;;5095237;28;19908;-68
2022/01/21 16:31:53;;;;;;;;;;;;;;;;;;5097142;28;19908;-68
2022/01/21 16:34:19;;;;;;;;;;;;;;;;;;5096668;28;20291;-68
2022/01/21 16:36:45;;;;;;;;;;;;;;;;;;5097519;28;19908;-69
2022/01/21 16:39:11;;;;;;;;;;;;;;;;;;5097713;28;19908;-68
2022/01/21 16:41:37;;;;;;;;;;;;;;;;;;5096697;28;19908;-69
2022/01/21 16:44:03;;;;;;;;;;;;;;;;;;5096920;28;20374;-68
2022/01/21 16:46:29;;;;;;;;;;;;;;;;;;5097221;28;19916;-68
2022/01/21 16:48:55;;;;;;;;;;;;;;;;;;5096532;28;19908;-68
2022/01/21 16:51:21;;;;;;;;;;;;;;;;;;5096772;28;20257;-67
2022/01/21 16:53:47;;;;;;;;;;;;;;;;;;5096702;28;20003;-69
2022/01/21 16:56:13;;;;;;;;;;;;;;;;;;5096380;28;19914;-67
2022/01/21 16:58:39;;;;;;;;;;;;;;;;;;5096898;28;20356;-68
2022/01/21 17:01:05;;;;;;;;;;;;;;;;;;5096864;28;19954;-69
2022/01/21 17:03:31;;;;;;;;;;;;;;;;;;5096097;28;19908;-68
2022/01/21 17:05:59;;;;;;;;;;;;;;;;;;5096433;28;19916;-68
2022/01/21 17:08:25;;;;;;;;;;;;;;;;;;5096388;28;20002;-67
2022/01/21 17:10:51;;;;;;;;;;;;;;;;;;5096157;28;19943;-68
2022/01/21 17:13:17;;;;;;;;;;;;;;;;;;5096280;28;20357;-68
2022/01/21 17:15:43;;;;;;;;;;;;;;;;;;5096265;28;19908;-68
2022/01/21 17:18:09;;;;;;;;;;;;;;;;;;5095796;28;20284;-68
2022/01/21 17:20:35;;;;;;;;;;;;;;;;;;5096222;28;19909;-68
2022/01/21 17:23:02;;;;;;;;;;;;;;;;;;5096250;28;19973;-68
2022/01/21 17:25:28;;;;;;;;;;;;;;;;;;5094172;28;19920;-69
2022/01/21 17:27:54;;;;;;;;;;;;;;;;;;5096073;28;19962;-68
2022/01/21 17:30:20;;;;;;;;;;;;;;;;;;5096093;28;19908;-68
2022/01/21 17:32:46;;;;;;;;;;;;;;;;;;5095555;28;20017;-68
2022/01/21 17:35:12;;;;;;;;;;;;;;;;;;5095931;28;19912;-69
2022/01/21 17:37:38;;;;;;;;;;;;;;;;;;5095580;28;19933;-69